sensor_id;sensor_type;location;lat;lon;timestamp;pressure;altitude;pressure_sealevel;temperature;humidity
39455;BME280;25155;41.890;23.446;2022-10-16T00:01:24;92476.16;;;8.27;57.72
39455;BME280;25155;41.890;23.446;2022-10-16T00:03:53;92480.03;;;8.25;57.45
39455;BME280;25155;41.890;23.446;2022-10-16T00:06:21;92491.44;;;8.24;57.20
39455;BME280;25155;41.890;23.446;2022-10-16T00:08:49;92487.50;;;8.21;57.60
39455;BME280;25155;41.890;23.446;2022-10-16T00:11:19;92484.81;;;8.16;57.16
39455;BME280;25155;41.890;23.446;2022-10-16T00:13:48;92488.13;;;8.11;57.39
39455;BME280;25155;41.890;23.446;2022-10-16T00:16:18;92491.19;;;8.08;57.37
39455;BME280;25155;41.890;23.446;2022-10-16T00:18:46;92494.00;;;8.07;57.18
39455;BME280;25155;41.890;23.446;2022-10-16T00:21:15;92500.22;;;8.06;57.45
39455;BME280;25155;41.890;23.446;2022-10-16T00:23:43;92489.28;;;8.04;57.55
39455;BME280;25155;41.890;23.446;2022-10-16T00:26:13;92501.16;;;8.00;57.86
39455;BME280;25155;41.890;23.446;2022-10-16T00:28:41;92490.09;;;7.92;58.12
39455;BME280;25155;41.890;23.446;2022-10-16T00:31:10;92483.72;;;7.83;57.87
39455;BME280;25155;41.890;23.446;2022-10-16T00:33:40;92485.50;;;7.83;57.85
39455;BME280;25155;41.890;23.446;2022-10-16T00:36:10;92486.00;;;7.80;57.76
39455;BME280;25155;41.890;23.446;2022-10-16T00:38:38;92489.84;;;7.77;57.42
39455;BME280;25155;41.890;23.446;2022-10-16T00:41:05;92488.25;;;7.76;57.55
39455;BME280;25155;41.890;23.446;2022-10-16T00:43:36;92487.13;;;7.72;57.53
39455;BME280;25155;41.890;23.446;2022-10-16T00:46:13;92483.41;;;7.68;57.35
39455;BME280;25155;41.890;23.446;2022-10-16T00:48:46;92487.84;;;7.67;57.63
39455;BME280;25155;41.890;23.446;2022-10-16T00:51:15;92487.84;;;7.67;57.70
39455;BME280;25155;41.890;23.446;2022-10-16T00:53:44;92484.69;;;7.65;58.30
39455;BME280;25155;41.890;23.446;2022-10-16T00:56:12;92493.47;;;7.64;57.65
39455;BME280;25155;41.890;23.446;2022-10-16T00:58:40;92490.56;;;7.61;57.85
39455;BME280;25155;41.890;23.446;2022-10-16T01:01:08;92498.03;;;7.57;58.18
39455;BME280;25155;41.890;23.446;2022-10-16T01:03:36;92498.59;;;7.47;58.57
39455;BME280;25155;41.890;23.446;2022-10-16T01:06:21;92503.94;;;7.41;58.30
39455;BME280;25155;41.890;23.446;2022-10-16T01:08:58;92512.94;;;7.38;58.66
39455;BME280;25155;41.890;23.446;2022-10-16T01:11:33;92518.84;;;7.33;58.04
39455;BME280;25155;41.890;23.446;2022-10-16T01:14:07;92523.69;;;7.30;58.21
39455;BME280;25155;41.890;23.446;2022-10-16T01:16:41;92525.16;;;7.26;58.09
39455;BME280;25155;41.890;23.446;2022-10-16T01:19:14;92526.16;;;7.25;58.33
39455;BME280;25155;41.890;23.446;2022-10-16T01:21:47;92524.59;;;7.24;58.44
39455;BME280;25155;41.890;23.446;2022-10-16T01:24:22;92526.66;;;7.22;58.41
39455;BME280;25155;41.890;23.446;2022-10-16T01:27:06;92522.69;;;7.19;58.48
39455;BME280;25155;41.890;23.446;2022-10-16T01:29:39;92521.91;;;7.18;58.47
39455;BME280;25155;41.890;23.446;2022-10-16T01:32:13;92520.75;;;7.14;58.59
39455;BME280;25155;41.890;23.446;2022-10-16T01:34:47;92521.22;;;7.11;58.24
39455;BME280;25155;41.890;23.446;2022-10-16T01:37:21;92526.84;;;7.08;58.24
39455;BME280;25155;41.890;23.446;2022-10-16T01:39:50;92528.09;;;7.06;58.26
39455;BME280;25155;41.890;23.446;2022-10-16T01:42:24;92528.56;;;7.02;58.15
39455;BME280;25155;41.890;23.446;2022-10-16T01:44:55;92530.94;;;7.04;58.43
39455;BME280;25155;41.890;23.446;2022-10-16T01:47:25;92523.38;;;7.02;58.36
39455;BME280;25155;41.890;23.446;2022-10-16T01:49:54;92530.16;;;7.04;58.58
39455;BME280;25155;41.890;23.446;2022-10-16T01:52:25;92528.78;;;7.01;58.58
39455;BME280;25155;41.890;23.446;2022-10-16T01:54:56;92527.44;;;6.98;58.58
39455;BME280;25155;41.890;23.446;2022-10-16T01:57:26;92533.28;;;6.94;59.57
39455;BME280;25155;41.890;23.446;2022-10-16T01:59:57;92531.94;;;6.91;58.81
39455;BME280;25155;41.890;23.446;2022-10-16T02:02:28;92530.00;;;6.87;59.46
39455;BME280;25155;41.890;23.446;2022-10-16T02:05:01;92535.31;;;6.80;59.66
39455;BME280;25155;41.890;23.446;2022-10-16T02:07:32;92508.03;;;6.65;59.72
39455;BME280;25155;41.890;23.446;2022-10-16T02:10:00;92527.19;;;6.76;59.43
39455;BME280;25155;41.890;23.446;2022-10-16T02:12:31;92533.03;;;6.72;59.50
39455;BME280;25155;41.890;23.446;2022-10-16T02:15:00;92529.31;;;6.68;59.38
39455;BME280;25155;41.890;23.446;2022-10-16T02:17:27;92532.91;;;6.67;59.60
39455;BME280;25155;41.890;23.446;2022-10-16T02:19:56;92537.22;;;6.61;59.94
39455;BME280;25155;41.890;23.446;2022-10-16T02:22:27;92541.84;;;6.59;59.85
39455;BME280;25155;41.890;23.446;2022-10-16T02:24:59;92534.94;;;6.53;59.93
39455;BME280;25155;41.890;23.446;2022-10-16T02:27:34;92533.94;;;6.54;60.34
39455;BME280;25155;41.890;23.446;2022-10-16T02:30:08;92539.34;;;6.52;59.85
39455;BME280;25155;41.890;23.446;2022-10-16T02:32:41;92540.13;;;6.53;59.79
39455;BME280;25155;41.890;23.446;2022-10-16T02:35:10;92532.56;;;6.51;60.11
39455;BME280;25155;41.890;23.446;2022-10-16T02:37:40;92539.56;;;6.51;60.10
39455;BME280;25155;41.890;23.446;2022-10-16T02:40:09;92536.38;;;6.49;59.81
39455;BME280;25155;41.890;23.446;2022-10-16T02:42:40;92536.25;;;6.43;59.91
39455;BME280;25155;41.890;23.446;2022-10-16T02:45:10;92540.31;;;6.39;60.65
39455;BME280;25155;41.890;23.446;2022-10-16T02:47:37;92542.78;;;6.34;60.66
39455;BME280;25155;41.890;23.446;2022-10-16T02:50:05;92551.78;;;6.32;60.25
39455;BME280;25155;41.890;23.446;2022-10-16T02:52:33;92548.28;;;6.26;60.83
39455;BME280;25155;41.890;23.446;2022-10-16T02:55:00;92555.13;;;6.20;61.06
39455;BME280;25155;41.890;23.446;2022-10-16T02:57:27;92549.81;;;6.15;61.02
39455;BME280;25155;41.890;23.446;2022-10-16T02:59:56;92552.63;;;6.14;60.85
39455;BME280;25155;41.890;23.446;2022-10-16T03:02:23;92558.38;;;6.16;60.72
39455;BME280;25155;41.890;23.446;2022-10-16T03:04:50;92553.22;;;6.16;60.57
39455;BME280;25155;41.890;23.446;2022-10-16T03:07:18;92555.81;;;6.16;60.38
39455;BME280;25155;41.890;23.446;2022-10-16T03:09:45;92560.16;;;6.15;60.18
39455;BME280;25155;41.890;23.446;2022-10-16T03:12:13;92556.25;;;6.13;60.16
39455;BME280;25155;41.890;23.446;2022-10-16T03:14:40;92557.00;;;6.13;59.99
39455;BME280;25155;41.890;23.446;2022-10-16T03:17:09;92556.66;;;6.09;60.67
39455;BME280;25155;41.890;23.446;2022-10-16T03:19:36;92555.09;;;6.08;60.44
39455;BME280;25155;41.890;23.446;2022-10-16T03:22:03;92567.81;;;6.10;60.59
39455;BME280;25155;41.890;23.446;2022-10-16T03:24:31;92560.81;;;6.10;60.30
39455;BME280;25155;41.890;23.446;2022-10-16T03:26:58;92556.75;;;6.03;62.51
39455;BME280;25155;41.890;23.446;2022-10-16T03:29:26;92569.78;;;5.96;61.75
39455;BME280;25155;41.890;23.446;2022-10-16T03:31:54;92561.72;;;5.86;61.31
39455;BME280;25155;41.890;23.446;2022-10-16T03:34:23;92562.94;;;5.83;61.08
39455;BME280;25155;41.890;23.446;2022-10-16T03:36:51;92570.28;;;5.86;60.76
39455;BME280;25155;41.890;23.446;2022-10-16T03:39:19;92574.06;;;5.84;60.66
39455;BME280;25155;41.890;23.446;2022-10-16T03:41:46;92574.50;;;5.81;60.53
39455;BME280;25155;41.890;23.446;2022-10-16T03:44:14;92572.59;;;5.76;60.77
39455;BME280;25155;41.890;23.446;2022-10-16T03:46:41;92573.38;;;5.77;60.47
39455;BME280;25155;41.890;23.446;2022-10-16T03:49:08;92584.94;;;5.74;60.39
39455;BME280;25155;41.890;23.446;2022-10-16T03:51:37;92584.38;;;5.72;60.88
39455;BME280;25155;41.890;23.446;2022-10-16T03:54:07;92576.25;;;5.68;60.40
39455;BME280;25155;41.890;23.446;2022-10-16T03:56:34;92582.00;;;5.70;60.43
39455;BME280;25155;41.890;23.446;2022-10-16T03:59:05;92580.06;;;5.66;60.44
39455;BME280;25155;41.890;23.446;2022-10-16T04:01:32;92576.69;;;5.65;60.30
39455;BME280;25155;41.890;23.446;2022-10-16T04:03:59;92580.25;;;5.64;60.50
39455;BME280;25155;41.890;23.446;2022-10-16T04:06:26;92571.72;;;5.64;60.23
39455;BME280;25155;41.890;23.446;2022-10-16T04:08:55;92579.91;;;5.61;60.58
39455;BME280;25155;41.890;23.446;2022-10-16T04:11:22;92583.53;;;5.60;60.58
39455;BME280;25155;41.890;23.446;2022-10-16T04:13:50;92583.16;;;5.56;60.57
39455;BME280;25155;41.890;23.446;2022-10-16T04:16:17;92579.41;;;5.52;60.52
39455;BME280;25155;41.890;23.446;2022-10-16T04:18:44;92580.41;;;5.51;60.50
39455;BME280;25155;41.890;23.446;2022-10-16T04:21:11;92572.88;;;5.49;60.03
39455;BME280;25155;41.890;23.446;2022-10-16T04:23:39;92571.50;;;5.47;60.28
39455;BME280;25155;41.890;23.446;2022-10-16T04:26:07;92570.34;;;5.43;60.37
39455;BME280;25155;41.890;23.446;2022-10-16T04:28:35;92568.34;;;5.45;60.26
39455;BME280;25155;41.890;23.446;2022-10-16T04:31:04;92564.38;;;5.42;60.33
39455;BME280;25155;41.890;23.446;2022-10-16T04:33:31;92562.22;;;5.39;60.63
39455;BME280;25155;41.890;23.446;2022-10-16T04:35:59;92562.72;;;5.29;61.61
39455;BME280;25155;41.890;23.446;2022-10-16T04:38:27;92567.91;;;5.29;61.34
39455;BME280;25155;41.890;23.446;2022-10-16T04:40:54;92568.34;;;5.26;60.96
39455;BME280;25155;41.890;23.446;2022-10-16T04:43:23;92569.78;;;5.22;60.83
39455;BME280;25155;41.890;23.446;2022-10-16T04:45:51;92573.94;;;5.23;60.52
39455;BME280;25155;41.890;23.446;2022-10-16T04:48:20;92578.31;;;5.23;60.58
39455;BME280;25155;41.890;23.446;2022-10-16T04:50:48;92577.53;;;5.22;60.38
39455;BME280;25155;41.890;23.446;2022-10-16T04:53:15;92580.13;;;5.22;60.44
39455;BME280;25155;41.890;23.446;2022-10-16T04:55:42;92582.91;;;5.21;60.60
39455;BME280;25155;41.890;23.446;2022-10-16T04:58:10;92586.28;;;5.21;60.58
39455;BME280;25155;41.890;23.446;2022-10-16T05:00:38;92582.91;;;5.21;60.70
39455;BME280;25155;41.890;23.446;2022-10-16T05:03:05;92573.81;;;5.18;60.40
39455;BME280;25155;41.890;23.446;2022-10-16T05:05:34;92585.28;;;5.22;60.47
39455;BME280;25155;41.890;23.446;2022-10-16T05:08:02;92586.66;;;5.25;60.44
39455;BME280;25155;41.890;23.446;2022-10-16T05:10:29;92586.47;;;5.26;60.67
39455;BME280;25155;41.890;23.446;2022-10-16T05:12:56;92586.00;;;5.29;60.71
39455;BME280;25155;41.890;23.446;2022-10-16T05:15:24;92591.31;;;5.34;60.93
39455;BME280;25155;41.890;23.446;2022-10-16T05:17:56;92592.91;;;5.35;61.09
39455;BME280;25155;41.890;23.446;2022-10-16T05:20:23;92599.69;;;5.36;61.09
39455;BME280;25155;41.890;23.446;2022-10-16T05:22:50;92597.44;;;5.40;60.93
39455;BME280;25155;41.890;23.446;2022-10-16T05:25:18;92596.00;;;5.44;60.94
39455;BME280;25155;41.890;23.446;2022-10-16T05:27:47;92593.81;;;5.48;61.11
39455;BME280;25155;41.890;23.446;2022-10-16T05:30:15;92599.69;;;5.55;61.27
39455;BME280;25155;41.890;23.446;2022-10-16T05:32:46;92607.81;;;5.59;61.15
39455;BME280;25155;41.890;23.446;2022-10-16T05:35:17;92607.94;;;5.64;61.39
39455;BME280;25155;41.890;23.446;2022-10-16T05:37:44;92606.16;;;5.64;62.41
39455;BME280;25155;41.890;23.446;2022-10-16T05:40:12;92614.16;;;5.63;62.82
39455;BME280;25155;41.890;23.446;2022-10-16T05:42:40;92615.66;;;5.70;62.48
39455;BME280;25155;41.890;23.446;2022-10-16T05:45:10;92618.38;;;5.76;62.55
39455;BME280;25155;41.890;23.446;2022-10-16T05:47:38;92624.72;;;5.80;63.26
39455;BME280;25155;41.890;23.446;2022-10-16T05:50:06;92625.50;;;5.80;63.89
39455;BME280;25155;41.890;23.446;2022-10-16T05:52:35;92626.66;;;5.84;63.93
39455;BME280;25155;41.890;23.446;2022-10-16T05:55:03;92625.56;;;5.92;64.01
39455;BME280;25155;41.890;23.446;2022-10-16T05:57:32;92633.50;;;5.97;64.15
39455;BME280;25155;41.890;23.446;2022-10-16T05:59:59;92638.38;;;6.05;64.66
39455;BME280;25155;41.890;23.446;2022-10-16T06:02:26;92633.94;;;6.13;64.24
39455;BME280;25155;41.890;23.446;2022-10-16T06:04:54;92636.50;;;6.31;63.72
39455;BME280;25155;41.890;23.446;2022-10-16T06:07:21;92641.94;;;6.41;64.04
39455;BME280;25155;41.890;23.446;2022-10-16T06:09:50;92642.78;;;6.54;64.02
39455;BME280;25155;41.890;23.446;2022-10-16T06:12:18;92647.31;;;6.70;64.28
39455;BME280;25155;41.890;23.446;2022-10-16T06:14:45;92649.03;;;6.76;64.52
39455;BME280;25155;41.890;23.446;2022-10-16T06:17:14;92654.13;;;6.83;64.33
39455;BME280;25155;41.890;23.446;2022-10-16T06:19:41;92652.59;;;6.94;64.32
39455;BME280;25155;41.890;23.446;2022-10-16T06:22:09;92655.22;;;7.06;64.28
39455;BME280;25155;41.890;23.446;2022-10-16T06:24:36;92659.72;;;7.10;64.31
39455;BME280;25155;41.890;23.446;2022-10-16T06:27:05;92658.97;;;7.22;64.65
39455;BME280;25155;41.890;23.446;2022-10-16T06:29:33;92654.13;;;7.37;64.56
39455;BME280;25155;41.890;23.446;2022-10-16T06:32:00;92649.47;;;7.51;64.46
39455;BME280;25155;41.890;23.446;2022-10-16T06:34:27;92654.00;;;7.67;64.19
39455;BME280;25155;41.890;23.446;2022-10-16T06:36:54;92650.47;;;7.85;64.88
39455;BME280;25155;41.890;23.446;2022-10-16T06:39:22;92652.84;;;7.99;65.12
39455;BME280;25155;41.890;23.446;2022-10-16T06:41:49;92655.63;;;8.09;65.10
39455;BME280;25155;41.890;23.446;2022-10-16T06:44:18;92656.97;;;8.23;65.22
39455;BME280;25155;41.890;23.446;2022-10-16T06:46:45;92661.22;;;8.41;65.21
39455;BME280;25155;41.890;23.446;2022-10-16T06:49:12;92658.13;;;8.56;64.60
39455;BME280;25155;41.890;23.446;2022-10-16T06:51:46;92656.03;;;8.70;64.70
39455;BME280;25155;41.890;23.446;2022-10-16T06:54:14;92660.50;;;8.86;64.31
39455;BME280;25155;41.890;23.446;2022-10-16T06:56:42;92656.97;;;9.10;64.19
39455;BME280;25155;41.890;23.446;2022-10-16T06:59:09;92661.88;;;9.23;64.15
39455;BME280;25155;41.890;23.446;2022-10-16T07:01:38;92664.16;;;9.36;63.71
39455;BME280;25155;41.890;23.446;2022-10-16T07:04:05;92667.50;;;9.49;63.54
39455;BME280;25155;41.890;23.446;2022-10-16T07:06:33;92666.03;;;9.58;63.65
39455;BME280;25155;41.890;23.446;2022-10-16T07:09:05;92665.47;;;9.73;63.57
39455;BME280;25155;41.890;23.446;2022-10-16T07:11:33;92663.50;;;9.80;62.75
39455;BME280;25155;41.890;23.446;2022-10-16T07:14:01;92675.91;;;9.90;62.98
39455;BME280;25155;41.890;23.446;2022-10-16T07:16:29;92669.28;;;10.04;62.88
39455;BME280;25155;41.890;23.446;2022-10-16T07:18:59;92661.94;;;10.18;62.26
39455;BME280;25155;41.890;23.446;2022-10-16T07:21:28;92664.91;;;10.27;61.50
39455;BME280;25155;41.890;23.446;2022-10-16T07:23:57;92663.47;;;10.36;61.51
39455;BME280;25155;41.890;23.446;2022-10-16T07:26:28;92669.88;;;10.50;61.35
39455;BME280;25155;41.890;23.446;2022-10-16T07:28:55;92670.00;;;10.61;61.09
39455;BME280;25155;41.890;23.446;2022-10-16T07:31:25;92665.69;;;10.71;60.90
39455;BME280;25155;41.890;23.446;2022-10-16T07:33:52;92662.22;;;10.88;61.06
39455;BME280;25155;41.890;23.446;2022-10-16T07:36:21;92668.38;;;11.04;60.54
39455;BME280;25155;41.890;23.446;2022-10-16T07:38:48;92661.41;;;11.15;60.02
39455;BME280;25155;41.890;23.446;2022-10-16T07:41:16;92667.81;;;11.29;60.46
39455;BME280;25155;41.890;23.446;2022-10-16T07:43:45;92661.56;;;11.35;58.93
39455;BME280;25155;41.890;23.446;2022-10-16T07:46:13;92668.94;;;11.43;58.78
39455;BME280;25155;41.890;23.446;2022-10-16T07:48:40;92664.09;;;11.57;58.46
39455;BME280;25155;41.890;23.446;2022-10-16T07:51:12;92668.66;;;11.72;59.58
39455;BME280;25155;41.890;23.446;2022-10-16T07:53:41;92658.59;;;11.91;58.79
39455;BME280;25155;41.890;23.446;2022-10-16T07:56:08;92663.63;;;12.03;58.05
39455;BME280;25155;41.890;23.446;2022-10-16T07:58:35;92658.72;;;12.12;57.57
39455;BME280;25155;41.890;23.446;2022-10-16T08:01:05;92655.66;;;12.30;57.70
39455;BME280;25155;41.890;23.446;2022-10-16T08:03:33;92656.78;;;12.50;56.72
39455;BME280;25155;41.890;23.446;2022-10-16T08:06:01;92659.97;;;12.67;57.25
39455;BME280;25155;41.890;23.446;2022-10-16T08:08:29;92660.06;;;12.88;56.84
39455;BME280;25155;41.890;23.446;2022-10-16T08:10:59;92656.41;;;12.99;56.08
39455;BME280;25155;41.890;23.446;2022-10-16T08:13:29;92654.59;;;13.15;55.10
39455;BME280;25155;41.890;23.446;2022-10-16T08:15:56;92651.75;;;13.32;55.94
39455;BME280;25155;41.890;23.446;2022-10-16T08:18:24;92656.47;;;13.51;54.42
39455;BME280;25155;41.890;23.446;2022-10-16T08:20:55;92656.22;;;13.62;54.22
39455;BME280;25155;41.890;23.446;2022-10-16T08:23:24;92656.44;;;13.76;52.62
39455;BME280;25155;41.890;23.446;2022-10-16T08:25:51;92653.81;;;13.81;51.98
39455;BME280;25155;41.890;23.446;2022-10-16T08:28:21;92655.13;;;13.94;52.73
39455;BME280;25155;41.890;23.446;2022-10-16T08:30:49;92660.88;;;14.12;52.56
39455;BME280;25155;41.890;23.446;2022-10-16T08:33:16;92661.63;;;14.23;51.17
39455;BME280;25155;41.890;23.446;2022-10-16T08:35:50;92646.38;;;14.30;51.79
39455;BME280;25155;41.890;23.446;2022-10-16T08:38:19;92644.72;;;14.49;51.65
39455;BME280;25155;41.890;23.446;2022-10-16T08:40:47;92644.69;;;14.60;50.31
39455;BME280;25155;41.890;23.446;2022-10-16T08:43:29;92651.25;;;14.67;50.05
39455;BME280;25155;41.890;23.446;2022-10-16T08:46:21;92646.72;;;14.83;50.29
39455;BME280;25155;41.890;23.446;2022-10-16T08:48:56;92645.31;;;15.01;49.76
39455;BME280;25155;41.890;23.446;2022-10-16T08:51:26;92644.41;;;15.16;50.52
39455;BME280;25155;41.890;23.446;2022-10-16T08:53:57;92640.09;;;15.30;49.23
39455;BME280;25155;41.890;23.446;2022-10-16T08:56:26;92645.25;;;15.46;49.00
39455;BME280;25155;41.890;23.446;2022-10-16T08:58:57;92648.06;;;15.55;48.89
39455;BME280;25155;41.890;23.446;2022-10-16T09:01:34;92643.00;;;15.63;48.24
39455;BME280;25155;41.890;23.446;2022-10-16T09:04:28;92645.81;;;15.77;48.10
39455;BME280;25155;41.890;23.446;2022-10-16T09:07:01;92645.56;;;15.79;46.37
39455;BME280;25155;41.890;23.446;2022-10-16T09:09:47;92643.97;;;15.78;45.99
39455;BME280;25155;41.890;23.446;2022-10-16T09:12:24;92655.94;;;15.94;46.48
39455;BME280;25155;41.890;23.446;2022-10-16T09:15:01;92650.00;;;16.08;44.79
39455;BME280;25155;41.890;23.446;2022-10-16T09:17:46;92647.22;;;16.23;45.05
39455;BME280;25155;41.890;23.446;2022-10-16T09:20:23;92644.44;;;16.38;43.58
39455;BME280;25155;41.890;23.446;2022-10-16T09:22:56;92640.72;;;16.39;44.50
39455;BME280;25155;41.890;23.446;2022-10-16T09:25:28;92632.19;;;16.48;42.83
39455;BME280;25155;41.890;23.446;2022-10-16T09:27:56;92629.66;;;16.61;44.42
39455;BME280;25155;41.890;23.446;2022-10-16T09:30:27;92622.84;;;16.79;44.14
39455;BME280;25155;41.890;23.446;2022-10-16T09:32:57;92616.31;;;16.96;45.58
39455;BME280;25155;41.890;23.446;2022-10-16T09:35:31;92623.09;;;17.02;42.18
39455;BME280;25155;41.890;23.446;2022-10-16T09:38:00;92611.56;;;16.98;41.85
39455;BME280;25155;41.890;23.446;2022-10-16T09:40:30;92617.91;;;16.97;42.41
39455;BME280;25155;41.890;23.446;2022-10-16T09:43:02;92622.03;;;17.03;42.81
39455;BME280;25155;41.890;23.446;2022-10-16T09:45:32;92613.97;;;17.13;42.02
39455;BME280;25155;41.890;23.446;2022-10-16T09:48:01;92616.63;;;17.13;41.40
39455;BME280;25155;41.890;23.446;2022-10-16T09:50:38;92612.34;;;17.18;41.84
39455;BME280;25155;41.890;23.446;2022-10-16T09:53:10;92610.25;;;17.33;42.56
39455;BME280;25155;41.890;23.446;2022-10-16T09:55:48;92603.47;;;17.46;41.45
39455;BME280;25155;41.890;23.446;2022-10-16T09:58:16;92605.09;;;17.42;40.29
39455;BME280;25155;41.890;23.446;2022-10-16T10:00:52;92603.03;;;17.39;40.05
39455;BME280;25155;41.890;23.446;2022-10-16T10:03:33;92593.97;;;17.45;40.42
39455;BME280;25155;41.890;23.446;2022-10-16T10:06:03;92590.31;;;17.27;41.72
39455;BME280;25155;41.890;23.446;2022-10-16T10:08:32;92597.28;;;17.70;42.39
39455;BME280;25155;41.890;23.446;2022-10-16T10:10:59;92593.34;;;18.00;41.84
39455;BME280;25155;41.890;23.446;2022-10-16T10:13:27;92594.81;;;18.20;40.84
39455;BME280;25155;41.890;23.446;2022-10-16T10:15:56;92593.25;;;18.33;39.59
39455;BME280;25155;41.890;23.446;2022-10-16T10:18:23;92591.97;;;18.44;39.71
39455;BME280;25155;41.890;23.446;2022-10-16T10:20:58;92593.94;;;18.53;39.43
39455;BME280;25155;41.890;23.446;2022-10-16T10:23:27;92592.06;;;18.53;39.03
39455;BME280;25155;41.890;23.446;2022-10-16T10:26:00;92584.94;;;18.54;39.26
39455;BME280;25155;41.890;23.446;2022-10-16T10:28:55;92586.09;;;18.61;38.55
39455;BME280;25155;41.890;23.446;2022-10-16T10:31:34;92586.56;;;18.77;39.32
39455;BME280;25155;41.890;23.446;2022-10-16T10:34:16;92573.22;;;18.96;40.08
39455;BME280;25155;41.890;23.446;2022-10-16T10:36:53;92579.25;;;19.11;39.40
39455;BME280;25155;41.890;23.446;2022-10-16T10:39:27;92576.25;;;19.26;39.78
39455;BME280;25155;41.890;23.446;2022-10-16T10:42:16;92578.41;;;19.47;40.35
39455;BME280;25155;41.890;23.446;2022-10-16T10:45:17;92570.34;;;19.52;38.75
39455;BME280;25155;41.890;23.446;2022-10-16T10:47:57;92567.81;;;19.69;38.47
39455;BME280;25155;41.890;23.446;2022-10-16T10:50:32;92563.66;;;19.77;37.25
39455;BME280;25155;41.890;23.446;2022-10-16T10:53:11;92570.88;;;19.85;37.29
39455;BME280;25155;41.890;23.446;2022-10-16T10:55:45;92565.16;;;20.01;38.14
39455;BME280;25155;41.890;23.446;2022-10-16T10:58:35;92557.59;;;20.08;37.37
39455;BME280;25155;41.890;23.446;2022-10-16T11:01:09;92554.50;;;20.15;35.08
39455;BME280;25155;41.890;23.446;2022-10-16T11:04:01;92558.38;;;20.17;36.46
39455;BME280;25155;41.890;23.446;2022-10-16T11:06:39;92549.38;;;20.27;34.61
39455;BME280;25155;41.890;23.446;2022-10-16T11:09:11;92538.16;;;20.21;34.65
39455;BME280;25155;41.890;23.446;2022-10-16T11:11:43;92536.75;;;20.24;35.28
39455;BME280;25155;41.890;23.446;2022-10-16T11:14:16;92533.34;;;20.32;34.52
39455;BME280;25155;41.890;23.446;2022-10-16T11:16:51;92534.84;;;20.16;33.75
39455;BME280;25155;41.890;23.446;2022-10-16T11:19:31;92530.50;;;20.11;34.33
39455;BME280;25155;41.890;23.446;2022-10-16T11:22:05;92528.31;;;20.13;34.33
39455;BME280;25155;41.890;23.446;2022-10-16T11:24:42;92523.97;;;20.17;33.38
39455;BME280;25155;41.890;23.446;2022-10-16T11:27:16;92523.50;;;20.24;33.96
39455;BME280;25155;41.890;23.446;2022-10-16T11:29:49;92525.09;;;20.34;33.11
39455;BME280;25155;41.890;23.446;2022-10-16T11:32:22;92522.19;;;20.44;34.89
39455;BME280;25155;41.890;23.446;2022-10-16T11:34:57;92522.66;;;20.55;33.60
39455;BME280;25155;41.890;23.446;2022-10-16T11:37:31;92521.06;;;20.36;33.44
39455;BME280;25155;41.890;23.446;2022-10-16T11:40:10;92529.44;;;20.21;34.22
39455;BME280;25155;41.890;23.446;2022-10-16T11:42:48;92531.28;;;20.12;33.28
39455;BME280;25155;41.890;23.446;2022-10-16T11:45:26;92527.53;;;20.13;34.00
39455;BME280;25155;41.890;23.446;2022-10-16T11:48:01;92524.00;;;20.35;34.59
39455;BME280;25155;41.890;23.446;2022-10-16T11:50:34;92517.34;;;20.37;33.58
39455;BME280;25155;41.890;23.446;2022-10-16T11:53:10;92529.00;;;20.45;34.08
39455;BME280;25155;41.890;23.446;2022-10-16T11:55:42;92524.22;;;20.56;34.13
39455;BME280;25155;41.890;23.446;2022-10-16T11:58:16;92527.31;;;20.49;34.14
39455;BME280;25155;41.890;23.446;2022-10-16T12:00:57;92527.03;;;20.51;33.66
39455;BME280;25155;41.890;23.446;2022-10-16T12:03:31;92531.06;;;20.57;33.60
39455;BME280;25155;41.890;23.446;2022-10-16T12:06:21;92520.31;;;20.62;33.90
39455;BME280;25155;41.890;23.446;2022-10-16T12:08:51;92522.97;;;20.62;33.84
39455;BME280;25155;41.890;23.446;2022-10-16T12:11:24;92520.63;;;20.60;33.76
39455;BME280;25155;41.890;23.446;2022-10-16T12:14:06;92521.09;;;20.62;33.84
39455;BME280;25155;41.890;23.446;2022-10-16T12:16:34;92518.63;;;20.83;34.57
39455;BME280;25155;41.890;23.446;2022-10-16T12:19:11;92515.06;;;20.97;33.35
39455;BME280;25155;41.890;23.446;2022-10-16T12:21:41;92517.72;;;20.88;32.03
39455;BME280;25155;41.890;23.446;2022-10-16T12:24:21;92515.06;;;20.71;32.76
39455;BME280;25155;41.890;23.446;2022-10-16T12:26:52;92511.63;;;20.79;33.39
39455;BME280;25155;41.890;23.446;2022-10-16T12:29:26;92519.59;;;20.96;34.40
39455;BME280;25155;41.890;23.446;2022-10-16T12:31:55;92517.06;;;21.00;32.50
39455;BME280;25155;41.890;23.446;2022-10-16T12:34:27;92520.38;;;20.97;31.98
39455;BME280;25155;41.890;23.446;2022-10-16T12:37:08;92528.31;;;20.79;30.86
39455;BME280;25155;41.890;23.446;2022-10-16T12:39:37;92531.88;;;20.83;31.74
39455;BME280;25155;41.890;23.446;2022-10-16T12:42:17;92522.84;;;20.85;31.58
39455;BME280;25155;41.890;23.446;2022-10-16T12:44:46;92518.00;;;20.87;31.05
39455;BME280;25155;41.890;23.446;2022-10-16T12:47:20;92521.94;;;20.80;30.90
39455;BME280;25155;41.890;23.446;2022-10-16T12:49:49;92531.88;;;20.83;29.98
39455;BME280;25155;41.890;23.446;2022-10-16T12:52:29;92531.75;;;20.89;29.94
39455;BME280;25155;41.890;23.446;2022-10-16T12:55:04;92528.47;;;20.92;30.17
39455;BME280;25155;41.890;23.446;2022-10-16T12:57:43;92518.66;;;21.01;30.38
39455;BME280;25155;41.890;23.446;2022-10-16T13:00:21;92530.81;;;21.19;30.36
39455;BME280;25155;41.890;23.446;2022-10-16T13:03:08;92529.56;;;21.26;30.34
39455;BME280;25155;41.890;23.446;2022-10-16T13:05:56;92539.09;;;21.00;31.09
39455;BME280;25155;41.890;23.446;2022-10-16T13:08:45;92529.88;;;20.98;30.72
39455;BME280;25155;41.890;23.446;2022-10-16T13:11:23;92546.88;;;21.06;31.12
39455;BME280;25155;41.890;23.446;2022-10-16T13:14:16;92544.69;;;20.90;29.82
39455;BME280;25155;41.890;23.446;2022-10-16T13:16:54;92542.38;;;20.89;31.28